createdAt,value
2022-10-17T00:02:26.710Z,15.44
2022-10-17T00:04:55.969Z,15.47
2022-10-17T00:07:26.739Z,15.46
2022-10-17T00:09:56.107Z,15.39
2022-10-17T00:12:25.058Z,15.31
2022-10-17T00:14:54.340Z,15.32
2022-10-17T00:17:23.350Z,15.31
2022-10-17T00:19:52.555Z,15.28
2022-10-17T00:22:21.603Z,15.22
2022-10-17T00:24:52.351Z,15.19
2022-10-17T00:27:21.327Z,15.15
2022-10-17T00:29:50.935Z,15.11
2022-10-17T00:32:20.170Z,15.11
2022-10-17T00:34:49.429Z,15.08
2022-10-17T00:37:18.442Z,15.06
2022-10-17T00:39:47.687Z,15.05
2022-10-17T00:42:18.025Z,15.02
2022-10-17T00:45:17.405Z,14.99
2022-10-17T00:47:47.214Z,14.94
2022-10-17T00:50:16.519Z,14.90
2022-10-17T00:52:45.454Z,14.90
2022-10-17T00:55:15.878Z,14.85
2022-10-17T00:57:46.400Z,14.70
2022-10-17T01:00:16.083Z,14.62
2022-10-17T01:02:45.089Z,14.54
2022-10-17T01:05:14.355Z,14.53
2022-10-17T01:07:43.405Z,14.50
2022-10-17T01:10:12.895Z,14.47
2022-10-17T01:12:43.949Z,14.40
2022-10-17T01:15:15.545Z,14.32
2022-10-17T01:17:47.523Z,14.35
2022-10-17T01:20:37.487Z,14.38
2022-10-17T01:23:11.357Z,14.42
2022-10-17T01:25:42.249Z,14.33
2022-10-17T01:28:15.373Z,14.28
2022-10-17T01:30:48.969Z,14.25
2022-10-17T01:33:19.254Z,14.10
2022-10-17T01:35:49.114Z,14.14
2022-10-17T01:38:19.142Z,14.23
2022-10-17T01:40:49.630Z,14.32
2022-10-17T01:43:19.631Z,14.30
2022-10-17T01:45:51.176Z,14.25
2022-10-17T01:48:21.101Z,14.19
2022-10-17T01:50:51.565Z,14.10
2022-10-17T01:53:21.337Z,13.93
2022-10-17T01:55:50.667Z,13.96
2022-10-17T01:58:20.733Z,13.96
2022-10-17T02:00:51.340Z,13.93
2022-10-17T02:03:20.852Z,13.90
2022-10-17T02:05:50.048Z,13.92
2022-10-17T02:08:26.920Z,13.99
2022-10-17T02:10:57.528Z,13.91
2022-10-17T02:13:29.168Z,13.98
2022-10-17T02:16:06.588Z,13.96
2022-10-17T02:18:40.266Z,13.99
2022-10-17T02:21:10.075Z,14.03
2022-10-17T02:23:39.446Z,14.05
2022-10-17T02:26:09.386Z,14.08
2022-10-17T02:28:40.029Z,14.08
2022-10-17T02:31:11.731Z,14.10
2022-10-17T02:33:41.211Z,14.06
2022-10-17T02:36:11.233Z,14.04
2022-10-17T02:38:40.293Z,13.99
2022-10-17T02:41:10.126Z,13.93
2022-10-17T02:43:39.491Z,13.95
2022-10-17T02:46:10.172Z,13.95
2022-10-17T02:48:40.141Z,13.89
2022-10-17T02:51:11.425Z,13.77
2022-10-17T02:53:42.487Z,13.82
2022-10-17T02:56:16.398Z,13.84
2022-10-17T02:58:45.481Z,13.77
2022-10-17T03:01:16.139Z,13.83
2022-10-17T03:03:45.171Z,13.70
2022-10-17T03:06:14.495Z,13.60
2022-10-17T03:08:43.546Z,13.61
2022-10-17T03:11:12.893Z,13.65
2022-10-17T03:13:41.902Z,13.60
2022-10-17T03:16:11.243Z,13.73
2022-10-17T03:18:44.328Z,13.76
2022-10-17T03:21:15.956Z,13.70
2022-10-17T03:23:44.950Z,13.58
2022-10-17T03:26:14.234Z,13.48
2022-10-17T03:28:43.280Z,13.58
2022-10-17T03:31:14.125Z,13.55
2022-10-17T03:33:44.602Z,13.54
2022-10-17T03:36:15.173Z,13.67
2022-10-17T03:38:44.454Z,13.67
2022-10-17T03:41:13.911Z,13.62
2022-10-17T03:43:42.926Z,13.55
2022-10-17T03:46:12.174Z,13.46
2022-10-17T03:48:41.191Z,13.46
2022-10-17T03:51:12.065Z,13.50
2022-10-17T03:53:41.059Z,13.55
2022-10-17T03:56:11.153Z,13.52
2022-10-17T03:58:40.347Z,13.45
2022-10-17T04:01:10.409Z,13.49
2022-10-17T04:03:39.619Z,13.44
2022-10-17T04:06:09.094Z,13.33
2022-10-17T04:08:39.568Z,13.40
2022-10-17T04:11:09.321Z,13.42
2022-10-17T04:13:38.360Z,13.26
2022-10-17T04:16:08.210Z,13.24
2022-10-17T04:18:37.298Z,13.07
2022-10-17T04:21:06.896Z,13.01
2022-10-17T04:23:35.925Z,13.11
2022-10-17T04:26:07.166Z,13.31
2022-10-17T04:28:36.273Z,13.41
2022-10-17T04:31:06.134Z,13.46
2022-10-17T04:33:35.390Z,13.47
2022-10-17T04:36:05.466Z,13.46
2022-10-17T04:38:34.495Z,13.49
2022-10-17T04:41:04.887Z,13.47
2022-10-17T04:43:35.861Z,13.50
2022-10-17T04:46:05.709Z,13.49
2022-10-17T04:48:34.711Z,13.34
2022-10-17T04:51:04.499Z,13.26
2022-10-17T04:53:33.923Z,13.34
2022-10-17T04:56:03.279Z,13.34
2022-10-17T04:58:32.257Z,13.41
2022-10-17T05:01:02.989Z,13.45
2022-10-17T05:03:32.122Z,13.43
2022-10-17T05:06:04.462Z,13.41
2022-10-17T05:08:33.469Z,13.48
2022-10-17T05:11:02.744Z,13.50
2022-10-17T05:13:32.197Z,13.52
2022-10-17T05:16:03.231Z,13.34
2022-10-17T05:18:32.249Z,13.29
2022-10-17T05:21:01.424Z,13.31
2022-10-17T05:23:30.888Z,13.33
2022-10-17T05:26:00.082Z,13.36
2022-10-17T05:28:29.246Z,13.36
2022-10-17T05:30:58.533Z,13.39
2022-10-17T05:33:28.942Z,13.42
2022-10-17T05:35:58.197Z,13.41
2022-10-17T05:38:27.357Z,13.42
2022-10-17T05:40:58.489Z,13.44
2022-10-17T05:43:27.614Z,13.45
2022-10-17T05:45:56.861Z,13.46
2022-10-17T05:48:25.823Z,13.43
2022-10-17T05:51:01.020Z,13.57
2022-10-17T05:53:31.620Z,13.65
2022-10-17T05:56:01.484Z,13.71
2022-10-17T05:58:50.290Z,13.66
2022-10-17T06:01:19.881Z,13.67
2022-10-17T06:03:48.901Z,13.74
2022-10-17T06:06:19.729Z,13.73
2022-10-17T06:08:48.769Z,13.59
2022-10-17T06:11:18.035Z,13.58
2022-10-17T06:13:47.028Z,13.58
2022-10-17T06:16:16.240Z,13.61
2022-10-17T06:18:45.333Z,13.67
2022-10-17T06:21:15.783Z,13.69
2022-10-17T06:23:46.214Z,13.71
2022-10-17T06:26:15.714Z,13.79
2022-10-17T06:28:45.100Z,13.93
2022-10-17T06:31:15.004Z,13.79
2022-10-17T06:33:45.300Z,13.80
2022-10-17T06:36:15.087Z,13.80
2022-10-17T06:38:44.120Z,13.84
2022-10-17T06:41:15.590Z,13.86
2022-10-17T06:43:46.372Z,13.95
2022-10-17T06:46:16.247Z,14.00
2022-10-17T06:48:45.398Z,14.04
2022-10-17T06:51:14.855Z,14.14
2022-10-17T06:53:43.940Z,14.15
2022-10-17T06:56:24.698Z,14.19
2022-10-17T06:59:00.247Z,14.25
2022-10-17T07:01:37.342Z,14.30
2022-10-17T07:04:15.326Z,14.35
2022-10-17T07:06:55.851Z,14.42
2022-10-17T07:09:25.928Z,14.47
2022-10-17T07:11:56.989Z,14.50
2022-10-17T07:14:32.336Z,14.52
2022-10-17T07:17:02.366Z,14.55
2022-10-17T07:22:54.620Z,14.69
2022-10-17T07:29:26.818Z,14.75
2022-10-17T07:31:58.147Z,14.81
2022-10-17T07:34:32.517Z,14.82
2022-10-17T07:37:06.845Z,14.85
2022-10-17T07:39:36.823Z,14.89
2022-10-17T07:42:07.631Z,14.91
2022-10-17T07:44:36.935Z,14.94
2022-10-17T07:47:07.873Z,14.99
2022-10-17T07:49:42.579Z,15.02
2022-10-17T07:52:12.447Z,15.07
2022-10-17T07:54:41.468Z,15.09
2022-10-17T07:57:10.936Z,15.12
2022-10-17T07:59:40.306Z,15.18
2022-10-17T08:02:40.893Z,15.21
2022-10-17T08:05:21.600Z,15.25
2022-10-17T08:07:51.142Z,15.31
2022-10-17T08:10:20.480Z,15.32
2022-10-17T08:12:50.079Z,15.38
2022-10-17T08:15:19.225Z,15.44
2022-10-17T08:17:48.654Z,15.45
2022-10-17T08:20:17.838Z,15.53
2022-10-17T08:22:54.061Z,15.61
2022-10-17T08:25:23.439Z,15.65
2022-10-17T08:27:52.754Z,15.68
2022-10-17T08:33:24.123Z,15.73
2022-10-17T08:35:53.172Z,15.80
2022-10-17T08:38:27.496Z,15.84
2022-10-17T08:40:56.952Z,15.92
2022-10-17T08:43:33.328Z,15.97
2022-10-17T08:46:05.656Z,16.02
2022-10-17T08:48:36.001Z,16.10
2022-10-17T08:51:07.241Z,16.14
2022-10-17T08:53:39.331Z,16.17
2022-10-17T08:56:19.555Z,16.20
2022-10-17T08:59:03.724Z,16.22
2022-10-17T09:01:34.542Z,16.27
2022-10-17T09:04:18.799Z,16.35
2022-10-17T09:06:49.853Z,16.44
2022-10-17T09:09:24.403Z,16.45
2022-10-17T09:11:59.777Z,16.46
2022-10-17T09:14:32.076Z,16.52
2022-10-17T09:17:04.694Z,16.56
2022-10-17T09:19:35.283Z,16.59
2022-10-17T09:22:05.187Z,16.65
2022-10-17T09:24:38.736Z,16.76
2022-10-17T09:27:07.884Z,16.76
2022-10-17T09:29:41.499Z,16.81
2022-10-17T09:32:13.208Z,16.86
2022-10-17T09:34:42.435Z,16.93
2022-10-17T09:37:12.796Z,17.00
2022-10-17T09:39:43.613Z,17.08
2022-10-17T09:42:15.889Z,17.11
2022-10-17T09:44:48.453Z,17.20
2022-10-17T09:47:23.930Z,17.23
2022-10-17T09:49:53.459Z,17.29
2022-10-17T09:52:23.239Z,17.36
2022-10-17T09:54:54.349Z,17.41
2022-10-17T09:57:23.969Z,17.43
2022-10-17T10:02:43.911Z,17.56
2022-10-17T10:05:17.488Z,17.59
2022-10-17T10:07:48.175Z,17.60
2022-10-17T10:10:28.275Z,17.73
2022-10-17T10:13:05.073Z,17.77
2022-10-17T10:15:41.497Z,17.86
2022-10-17T10:18:35.243Z,17.89
2022-10-17T10:21:10.847Z,17.91
2022-10-17T10:23:41.412Z,18.00
2022-10-17T10:26:23.312Z,18.11
2022-10-17T10:29:22.324Z,18.14
2022-10-17T10:32:57.345Z,18.19
2022-10-17T10:35:20.650Z,18.34
2022-10-17T10:37:51.291Z,18.36
2022-10-17T10:40:55.426Z,18.44
2022-10-17T10:51:05.148Z,18.76
2022-10-17T10:53:36.052Z,18.82
2022-10-17T10:56:06.069Z,18.91
2022-10-17T10:58:42.133Z,19.00
2022-10-17T11:01:13.865Z,19.11
2022-10-17T11:03:43.476Z,19.11
2022-10-17T11:06:18.200Z,19.15
2022-10-17T11:08:49.612Z,19.17
2022-10-17T11:11:19.913Z,19.23
2022-10-17T11:13:53.298Z,19.29
2022-10-17T11:16:25.370Z,19.26
2022-10-17T11:18:56.483Z,19.25
2022-10-17T11:21:29.865Z,19.25
2022-10-17T11:24:04.593Z,19.33
2022-10-17T11:26:39.803Z,19.42
2022-10-17T11:29:12.018Z,19.46
2022-10-17T11:31:42.354Z,19.52
2022-10-17T11:34:11.905Z,19.53
2022-10-17T11:36:43.329Z,19.57
2022-10-17T11:39:13.368Z,19.57
2022-10-17T11:41:43.425Z,19.62
2022-10-17T11:44:14.967Z,19.66
2022-10-17T11:46:44.093Z,19.72
2022-10-17T11:49:19.869Z,19.75
2022-10-17T11:52:00.822Z,19.80
2022-10-17T11:58:48.277Z,19.94
2022-10-17T12:01:19.256Z,20.02
2022-10-17T12:04:20.346Z,20.07
2022-10-17T12:10:23.816Z,20.30
2022-10-17T12:12:53.042Z,20.37
2022-10-17T12:15:32.633Z,20.40
2022-10-17T12:18:03.073Z,20.47
2022-10-17T12:20:35.722Z,20.53
2022-10-17T12:23:28.244Z,20.61
2022-10-17T12:30:15.840Z,20.79
2022-10-17T12:33:31.288Z,20.79
2022-10-17T12:36:28.905Z,20.91
2022-10-17T12:39:17.843Z,21.01
2022-10-17T12:41:54.775Z,21.10
2022-10-17T12:44:38.156Z,21.23
2022-10-17T12:47:28.213Z,21.37
2022-10-17T12:49:59.495Z,21.47
2022-10-17T12:52:31.335Z,21.64
2022-10-17T12:55:18.057Z,21.76
2022-10-17T12:57:55.706Z,21.89
2022-10-17T13:00:27.218Z,22.04
2022-10-17T13:02:57.065Z,22.10
2022-10-17T13:05:29.730Z,22.13
2022-10-17T13:07:59.997Z,22.19
2022-10-17T13:10:30.757Z,22.24
2022-10-17T13:13:05.050Z,22.25
2022-10-17T13:15:34.623Z,22.28
2022-10-17T13:18:11.542Z,22.25
2022-10-17T13:20:45.814Z,22.25
2022-10-17T13:23:27.548Z,22.27
2022-10-17T13:26:20.557Z,22.30
2022-10-17T13:29:05.358Z,22.33
2022-10-17T13:31:40.351Z,22.35
2022-10-17T13:34:16.995Z,22.42
2022-10-17T13:36:53.615Z,22.46
2022-10-17T13:39:38.425Z,22.46
2022-10-17T13:42:19.198Z,22.52
2022-10-17T13:44:48.359Z,22.54
2022-10-17T13:47:51.436Z,22.55
2022-10-17T13:50:43.736Z,22.62
2022-10-17T13:53:24.378Z,22.64
2022-10-17T13:56:15.689Z,22.66
2022-10-17T13:58:47.762Z,22.68
2022-10-17T14:01:17.059Z,22.70
2022-10-17T14:03:49.014Z,22.76
2022-10-17T14:06:19.667Z,22.77
2022-10-17T14:08:51.672Z,22.80
2022-10-17T14:11:29.370Z,22.82
2022-10-17T14:13:58.955Z,22.86
2022-10-17T14:16:28.464Z,22.88
2022-10-17T14:18:57.882Z,22.89
2022-10-17T14:21:40.940Z,22.89
2022-10-17T14:24:26.247Z,22.86
2022-10-17T14:26:55.873Z,22.84
2022-10-17T14:29:26.351Z,22.88
2022-10-17T14:32:02.136Z,22.90
2022-10-17T14:34:32.991Z,22.88
2022-10-17T14:37:02.257Z,22.88
2022-10-17T14:39:33.254Z,22.88
2022-10-17T14:42:04.519Z,22.87
2022-10-17T14:44:34.580Z,22.88
2022-10-17T14:47:18.616Z,22.85
2022-10-17T14:50:04.289Z,22.82
2022-10-17T14:52:33.590Z,22.85
2022-10-17T14:55:18.702Z,22.83
2022-10-17T14:57:47.814Z,22.80
2022-10-17T15:00:17.353Z,22.76
2022-10-17T15:02:46.718Z,22.73
2022-10-17T15:05:16.276Z,22.71
2022-10-17T15:07:45.341Z,22.71
2022-10-17T15:10:22.535Z,22.70
2022-10-17T15:13:04.344Z,22.63
2022-10-17T15:15:39.311Z,22.62
2022-10-17T15:18:08.474Z,22.62
2022-10-17T15:20:37.989Z,22.56
2022-10-17T15:23:07.085Z,22.51
2022-10-17T15:25:37.767Z,22.47
2022-10-17T15:28:06.783Z,22.41
2022-10-17T15:30:36.646Z,22.40
2022-10-17T15:33:05.686Z,22.32
2022-10-17T15:35:34.968Z,22.26
2022-10-17T15:38:03.997Z,22.20
2022-10-17T15:40:33.170Z,22.16
2022-10-17T15:43:03.608Z,22.11
2022-10-17T15:45:32.959Z,22.08
2022-10-17T15:48:03.186Z,22.03
2022-10-17T15:50:32.621Z,21.96
2022-10-17T15:53:01.705Z,21.93
2022-10-17T15:55:31.988Z,21.87
2022-10-17T15:58:01.491Z,21.79
2022-10-17T16:00:32.219Z,21.74
2022-10-17T16:03:01.875Z,21.69
2022-10-17T16:05:31.065Z,21.65
2022-10-17T16:08:00.133Z,21.60
2022-10-17T16:10:29.424Z,21.56
2022-10-17T16:12:58.744Z,21.52
2022-10-17T16:15:28.696Z,21.49
2022-10-17T16:18:01.658Z,21.45
2022-10-17T16:20:33.526Z,21.39
2022-10-17T16:23:03.438Z,21.35
2022-10-17T16:25:32.979Z,21.30
2022-10-17T16:28:02.059Z,21.25
2022-10-17T16:30:31.817Z,21.22
2022-10-17T16:33:02.337Z,21.18
2022-10-17T16:35:34.952Z,21.16
2022-10-17T16:38:07.090Z,21.08
2022-10-17T16:40:37.071Z,21.05
2022-10-17T16:43:06.102Z,20.99
2022-10-17T16:45:35.325Z,20.96
2022-10-17T16:48:06.095Z,20.97
2022-10-17T16:50:35.824Z,20.92
2022-10-17T16:53:05.133Z,20.87
2022-10-17T16:55:34.347Z,20.87
2022-10-17T16:58:03.349Z,20.81
2022-10-17T17:00:32.794Z,20.77
2022-10-17T17:03:01.830Z,20.77
2022-10-17T17:05:32.494Z,20.74
2022-10-17T17:08:03.597Z,20.72
2022-10-17T17:10:32.811Z,20.68
2022-10-17T17:13:03.393Z,20.65
2022-10-17T17:15:32.710Z,20.64
2022-10-17T17:18:05.083Z,20.61
2022-10-17T17:20:36.582Z,20.52
2022-10-17T17:23:05.724Z,20.51
2022-10-17T17:25:35.621Z,20.46
2022-10-17T17:28:04.604Z,20.45
2022-10-17T17:30:34.259Z,20.47
2022-10-17T17:33:03.316Z,20.38
2022-10-17T17:35:32.626Z,20.40
2022-10-17T17:38:04.865Z,20.36
2022-10-17T17:40:34.893Z,20.34
2022-10-17T17:43:04.251Z,20.31
2022-10-17T17:45:33.667Z,20.21
2022-10-17T17:48:02.658Z,20.16
2022-10-17T17:50:32.972Z,20.12
2022-10-17T17:53:03.453Z,20.12
2022-10-17T17:55:32.852Z,20.06
2022-10-17T17:58:01.966Z,20.07
2022-10-17T18:00:31.310Z,20.06
2022-10-17T18:03:00.524Z,20.02
2022-10-17T18:05:29.804Z,20.02
2022-10-17T18:07:58.849Z,20.02
2022-10-17T18:10:30.560Z,19.95
2022-10-17T18:12:59.664Z,19.98
2022-10-17T18:15:29.038Z,20.00
2022-10-17T18:17:58.100Z,20.00
2022-10-17T18:20:27.909Z,20.03
2022-10-17T18:23:00.509Z,19.97
2022-10-17T18:25:34.151Z,20.01
2022-10-17T18:28:03.252Z,19.98
2022-10-17T18:30:34.416Z,19.98
2022-10-17T18:33:03.653Z,19.97
2022-10-17T18:35:35.863Z,19.95
2022-10-17T18:38:06.149Z,19.94
2022-10-17T18:40:36.896Z,19.97
2022-10-17T18:43:05.944Z,19.96
2022-10-17T18:45:35.327Z,19.87
2022-10-17T18:48:04.390Z,19.86
2022-10-17T18:50:33.632Z,19.80
2022-10-17T18:53:02.668Z,19.79
2022-10-17T18:55:32.114Z,19.77
2022-10-17T18:58:02.912Z,19.73
2022-10-17T19:00:33.228Z,19.66
2022-10-17T19:03:04.334Z,19.69
2022-10-17T19:05:34.883Z,19.56
2022-10-17T19:08:03.949Z,19.53
2022-10-17T19:10:33.439Z,19.55
2022-10-17T19:13:03.951Z,19.49
2022-10-17T19:15:33.236Z,19.59
2022-10-17T19:18:02.268Z,19.64
2022-10-17T19:20:31.574Z,19.57
2022-10-17T19:23:00.616Z,19.56
2022-10-17T19:25:30.686Z,19.59
2022-10-17T19:27:59.809Z,19.53
2022-10-17T19:30:30.524Z,19.38
2022-10-17T19:32:59.609Z,19.17
2022-10-17T19:35:28.846Z,19.25
2022-10-17T19:37:57.959Z,19.42
2022-10-17T19:40:27.582Z,19.37
2022-10-17T19:42:56.619Z,19.26
2022-10-17T19:45:25.889Z,19.35
2022-10-17T19:47:56.243Z,19.36
2022-10-17T19:50:25.538Z,19.48
2022-10-17T19:52:54.555Z,19.46
2022-10-17T19:55:23.892Z,19.51
2022-10-17T19:57:52.904Z,19.39
2022-10-17T20:00:22.239Z,19.53
2022-10-17T20:02:51.323Z,19.58
2022-10-17T20:05:28.046Z,19.48
2022-10-17T20:07:57.299Z,19.43
2022-10-17T20:10:26.749Z,19.34
2022-10-17T20:12:55.979Z,19.49
2022-10-17T20:15:25.171Z,19.53
2022-10-17T20:17:54.215Z,19.58
2022-10-17T20:20:24.976Z,19.46
2022-10-17T20:22:53.980Z,19.54
2022-10-17T20:25:23.359Z,19.43
2022-10-17T20:27:52.502Z,19.49
2022-10-17T20:30:21.833Z,19.44
2022-10-17T20:32:55.220Z,19.37
2022-10-17T20:35:26.067Z,19.50
2022-10-17T20:37:55.139Z,19.37
2022-10-17T20:40:34.649Z,19.36
2022-10-17T20:43:04.786Z,19.30
2022-10-17T20:45:50.427Z,19.26
2022-10-17T20:48:20.977Z,19.19
2022-10-17T20:50:52.108Z,19.22
2022-10-17T20:53:37.571Z,19.43
2022-10-17T20:56:07.919Z,19.39
2022-10-17T20:58:37.017Z,19.40
2022-10-17T21:01:07.638Z,19.43
2022-10-17T21:03:43.885Z,19.54
2022-10-17T21:06:17.822Z,19.51
2022-10-17T21:08:47.144Z,19.60
2022-10-17T21:11:17.112Z,19.40
2022-10-17T21:13:46.300Z,19.48
2022-10-17T21:16:16.473Z,19.41
2022-10-17T21:18:45.480Z,19.46
2022-10-17T21:21:16.004Z,19.47
2022-10-17T21:23:47.630Z,19.64
2022-10-17T21:26:16.915Z,19.49
2022-10-17T21:28:46.751Z,19.43
2022-10-17T21:31:16.742Z,19.60
2022-10-17T21:33:46.340Z,19.52
2022-10-17T21:36:16.894Z,19.52
2022-10-17T21:38:47.838Z,19.50
2022-10-17T21:41:17.575Z,19.46
2022-10-17T21:43:46.859Z,19.34
2022-10-17T21:46:17.189Z,19.56
2022-10-17T21:48:46.487Z,19.48
2022-10-17T21:51:17.197Z,19.43
2022-10-17T21:53:47.765Z,19.59
2022-10-17T21:56:18.120Z,19.56
2022-10-17T21:58:47.147Z,19.54
2022-10-17T22:01:17.888Z,19.61
2022-10-17T22:03:47.866Z,19.44
2022-10-17T22:06:38.752Z,19.37
2022-10-17T22:09:08.493Z,19.34
2022-10-17T22:11:37.760Z,19.59
2022-10-17T22:14:07.848Z,19.63
2022-10-17T22:16:37.117Z,19.54
2022-10-17T22:19:07.287Z,19.69
2022-10-17T22:21:37.279Z,19.73
2022-10-17T22:24:11.455Z,19.65
2022-10-17T22:26:40.805Z,19.64
2022-10-17T22:29:09.895Z,19.60
2022-10-17T22:31:39.400Z,19.67
2022-10-17T22:34:08.752Z,19.62
2022-10-17T22:36:38.017Z,19.55
2022-10-17T22:39:08.461Z,19.49
2022-10-17T22:41:37.635Z,19.26
2022-10-17T22:44:06.703Z,19.54
2022-10-17T22:46:35.998Z,19.33
2022-10-17T22:49:04.975Z,19.37
2022-10-17T22:51:34.197Z,19.51
2022-10-17T22:54:03.200Z,19.40
2022-10-17T22:56:33.856Z,19.31
2022-10-17T22:59:02.882Z,19.34
2022-10-17T23:01:32.170Z,19.30
2022-10-17T23:04:01.200Z,19.24
2022-10-17T23:06:30.477Z,19.33
2022-10-17T23:08:59.504Z,19.16
2022-10-17T23:11:28.865Z,19.25
2022-10-17T23:13:59.280Z,19.35
2022-10-17T23:16:28.534Z,19.43
2022-10-17T23:18:58.445Z,19.36
2022-10-17T23:21:27.757Z,19.28
2022-10-17T23:23:56.778Z,19.35
2022-10-17T23:26:25.983Z,19.38
2022-10-17T23:29:03.632Z,19.34
2022-10-17T23:31:34.359Z,19.41
2022-10-17T23:34:03.327Z,19.40
2022-10-17T23:39:06.561Z,19.54
2022-10-17T23:41:35.735Z,19.33
2022-10-17T23:44:04.937Z,19.28
2022-10-17T23:46:35.560Z,19.31
2022-10-17T23:49:04.815Z,19.15
2022-10-17T23:51:34.297Z,19.15
2022-10-17T23:54:03.381Z,19.06
2022-10-17T23:56:32.563Z,19.13
2022-10-17T23:59:01.610Z,19.20
